sensor_id;sensor_type;location;lat;lon;timestamp;temperature;humidity
58469;DHT22;44257;44.804;10.220;2022-08-19T00:01:41;21.10;99.90
58469;DHT22;44257;44.804;10.220;2022-08-19T00:04:10;21.10;99.90
58469;DHT22;44257;44.804;10.220;2022-08-19T00:06:40;21.10;99.90
58469;DHT22;44257;44.804;10.220;2022-08-19T00:09:09;21.10;99.90
58469;DHT22;44257;44.804;10.220;2022-08-19T00:11:35;21.10;99.90
58469;DHT22;44257;44.804;10.220;2022-08-19T00:14:04;21.00;99.90
58469;DHT22;44257;44.804;10.220;2022-08-19T00:16:30;21.00;99.90
58469;DHT22;44257;44.804;10.220;2022-08-19T00:18:56;21.00;99.90
58469;DHT22;44257;44.804;10.220;2022-08-19T00:21:26;21.00;99.90
58469;DHT22;44257;44.804;10.220;2022-08-19T00:23:55;21.00;99.90
58469;DHT22;44257;44.804;10.220;2022-08-19T00:26:25;20.90;99.90
58469;DHT22;44257;44.804;10.220;2022-08-19T00:28:51;20.90;99.90
58469;DHT22;44257;44.804;10.220;2022-08-19T00:31:17;20.90;99.90
58469;DHT22;44257;44.804;10.220;2022-08-19T00:33:43;20.90;99.90
58469;DHT22;44257;44.804;10.220;2022-08-19T00:36:10;20.80;99.90
58469;DHT22;44257;44.804;10.220;2022-08-19T00:38:38;20.80;99.90
58469;DHT22;44257;44.804;10.220;2022-08-19T00:41:07;20.70;99.90
58469;DHT22;44257;44.804;10.220;2022-08-19T00:43:34;20.60;99.90
58469;DHT22;44257;44.804;10.220;2022-08-19T00:46:00;20.40;99.90
58469;DHT22;44257;44.804;10.220;2022-08-19T00:48:32;20.30;99.90
58469;DHT22;44257;44.804;10.220;2022-08-19T00:50:59;20.30;99.90
58469;DHT22;44257;44.804;10.220;2022-08-19T00:53:28;20.30;99.90
58469;DHT22;44257;44.804;10.220;2022-08-19T00:55:58;20.20;99.90
58469;DHT22;44257;44.804;10.220;2022-08-19T00:58:30;20.20;99.90
58469;DHT22;44257;44.804;10.220;2022-08-19T01:00:57;20.20;99.90
58469;DHT22;44257;44.804;10.220;2022-08-19T01:03:24;20.20;99.90
58469;DHT22;44257;44.804;10.220;2022-08-19T01:05:52;20.20;99.90
58469;DHT22;44257;44.804;10.220;2022-08-19T01:08:19;20.10;99.90
58469;DHT22;44257;44.804;10.220;2022-08-19T01:10:52;20.10;99.90
58469;DHT22;44257;44.804;10.220;2022-08-19T01:13:22;20.10;99.90
58469;DHT22;44257;44.804;10.220;2022-08-19T01:15:55;20.10;99.90
58469;DHT22;44257;44.804;10.220;2022-08-19T01:18:22;20.10;99.90
58469;DHT22;44257;44.804;10.220;2022-08-19T01:21:05;20.10;99.90
58469;DHT22;44257;44.804;10.220;2022-08-19T01:23:32;20.10;99.90
58469;DHT22;44257;44.804;10.220;2022-08-19T01:26:20;20.10;99.90
58469;DHT22;44257;44.804;10.220;2022-08-19T01:28:49;20.10;99.90
58469;DHT22;44257;44.804;10.220;2022-08-19T01:31:22;20.00;99.90
58469;DHT22;44257;44.804;10.220;2022-08-19T01:33:51;20.10;99.90
58469;DHT22;44257;44.804;10.220;2022-08-19T01:36:24;20.10;99.90
58469;DHT22;44257;44.804;10.220;2022-08-19T01:38:51;20.20;99.90
58469;DHT22;44257;44.804;10.220;2022-08-19T01:41:18;20.30;99.90
58469;DHT22;44257;44.804;10.220;2022-08-19T01:43:44;20.30;99.90
58469;DHT22;44257;44.804;10.220;2022-08-19T01:46:11;20.30;99.90
58469;DHT22;44257;44.804;10.220;2022-08-19T01:48:40;20.30;99.90
58469;DHT22;44257;44.804;10.220;2022-08-19T01:51:08;20.20;99.90
58469;DHT22;44257;44.804;10.220;2022-08-19T05:20:49;17.90;99.90
58469;DHT22;44257;44.804;10.220;2022-08-19T05:23:36;18.10;99.90
58469;DHT22;44257;44.804;10.220;2022-08-19T05:26:02;18.10;99.90
58469;DHT22;44257;44.804;10.220;2022-08-19T05:28:28;18.20;99.90
58469;DHT22;44257;44.804;10.220;2022-08-19T05:30:54;18.20;99.90
58469;DHT22;44257;44.804;10.220;2022-08-19T05:33:22;18.20;99.90
58469;DHT22;44257;44.804;10.220;2022-08-19T05:35:50;18.20;99.90
58469;DHT22;44257;44.804;10.220;2022-08-19T05:38:17;18.20;99.90
58469;DHT22;44257;44.804;10.220;2022-08-19T05:40:43;18.20;99.90
58469;DHT22;44257;44.804;10.220;2022-08-19T05:43:15;18.20;99.90
58469;DHT22;44257;44.804;10.220;2022-08-19T05:45:42;18.20;99.90
58469;DHT22;44257;44.804;10.220;2022-08-19T05:48:11;18.20;99.90
58469;DHT22;44257;44.804;10.220;2022-08-19T05:50:38;18.20;99.90
58469;DHT22;44257;44.804;10.220;2022-08-19T05:53:05;18.20;99.90
58469;DHT22;44257;44.804;10.220;2022-08-19T05:55:31;18.20;99.90
58469;DHT22;44257;44.804;10.220;2022-08-19T05:57:57;18.30;99.90
58469;DHT22;44257;44.804;10.220;2022-08-19T06:00:23;18.30;99.90
58469;DHT22;44257;44.804;10.220;2022-08-19T06:02:49;18.30;99.90
58469;DHT22;44257;44.804;10.220;2022-08-19T06:05:16;18.30;99.90
58469;DHT22;44257;44.804;10.220;2022-08-19T06:07:42;18.30;99.90
58469;DHT22;44257;44.804;10.220;2022-08-19T06:10:10;18.30;99.90
58469;DHT22;44257;44.804;10.220;2022-08-19T06:12:37;18.30;99.90
58469;DHT22;44257;44.804;10.220;2022-08-19T06:15:10;18.30;99.90
58469;DHT22;44257;44.804;10.220;2022-08-19T06:17:37;18.30;99.90
58469;DHT22;44257;44.804;10.220;2022-08-19T06:20:06;18.30;99.90
58469;DHT22;44257;44.804;10.220;2022-08-19T06:22:37;18.30;99.90
58469;DHT22;44257;44.804;10.220;2022-08-19T06:25:04;18.30;99.90
58469;DHT22;44257;44.804;10.220;2022-08-19T06:27:30;18.30;99.90
58469;DHT22;44257;44.804;10.220;2022-08-19T06:29:58;18.40;99.90
58469;DHT22;44257;44.804;10.220;2022-08-19T06:32:24;18.40;99.90
58469;DHT22;44257;44.804;10.220;2022-08-19T06:34:50;18.40;99.90
58469;DHT22;44257;44.804;10.220;2022-08-19T06:37:16;18.50;99.90
58469;DHT22;44257;44.804;10.220;2022-08-19T06:39:44;18.50;99.90
58469;DHT22;44257;44.804;10.220;2022-08-19T06:42:12;18.50;99.90
58469;DHT22;44257;44.804;10.220;2022-08-19T06:44:41;18.60;99.90
58469;DHT22;44257;44.804;10.220;2022-08-19T06:47:09;18.70;99.90
58469;DHT22;44257;44.804;10.220;2022-08-19T06:49:36;18.70;99.90
58469;DHT22;44257;44.804;10.220;2022-08-19T06:52:04;18.80;99.90
58469;DHT22;44257;44.804;10.220;2022-08-19T06:54:31;18.90;99.90
58469;DHT22;44257;44.804;10.220;2022-08-19T06:56:59;19.00;99.90
58469;DHT22;44257;44.804;10.220;2022-08-19T06:59:28;19.10;99.90
58469;DHT22;44257;44.804;10.220;2022-08-19T07:02:00;19.10;99.90
58469;DHT22;44257;44.804;10.220;2022-08-19T07:04:31;19.30;99.90
58469;DHT22;44257;44.804;10.220;2022-08-19T07:07:07;19.30;99.90
58469;DHT22;44257;44.804;10.220;2022-08-19T07:09:37;19.50;99.90
58469;DHT22;44257;44.804;10.220;2022-08-19T07:12:06;19.60;99.90
58469;DHT22;44257;44.804;10.220;2022-08-19T07:14:33;19.70;99.90
58469;DHT22;44257;44.804;10.220;2022-08-19T07:17:05;19.70;99.90
58469;DHT22;44257;44.804;10.220;2022-08-19T07:19:33;19.80;99.90
58469;DHT22;44257;44.804;10.220;2022-08-19T07:22:04;19.90;99.90
58469;DHT22;44257;44.804;10.220;2022-08-19T07:24:31;20.10;99.90
58469;DHT22;44257;44.804;10.220;2022-08-19T07:27:00;20.30;99.90
58469;DHT22;44257;44.804;10.220;2022-08-19T07:29:29;20.40;99.90
58469;DHT22;44257;44.804;10.220;2022-08-19T07:31:57;20.50;99.90
58469;DHT22;44257;44.804;10.220;2022-08-19T07:34:27;20.60;99.90
58469;DHT22;44257;44.804;10.220;2022-08-19T07:36:54;20.80;99.90
58469;DHT22;44257;44.804;10.220;2022-08-19T07:39:24;20.80;99.90
58469;DHT22;44257;44.804;10.220;2022-08-19T07:41:51;21.10;99.90
58469;DHT22;44257;44.804;10.220;2022-08-19T07:44:18;21.30;99.90
58469;DHT22;44257;44.804;10.220;2022-08-19T07:46:51;21.60;99.90
58469;DHT22;44257;44.804;10.220;2022-08-19T07:49:18;21.80;99.90
58469;DHT22;44257;44.804;10.220;2022-08-19T07:51:51;21.90;99.90
58469;DHT22;44257;44.804;10.220;2022-08-19T07:54:20;22.10;99.90
58469;DHT22;44257;44.804;10.220;2022-08-19T07:56:46;22.20;99.90
58469;DHT22;44257;44.804;10.220;2022-08-19T07:59:12;22.30;99.90
58469;DHT22;44257;44.804;10.220;2022-08-19T08:01:39;22.30;99.90
58469;DHT22;44257;44.804;10.220;2022-08-19T08:04:07;22.30;99.90
58469;DHT22;44257;44.804;10.220;2022-08-19T08:06:52;22.20;99.90
58469;DHT22;44257;44.804;10.220;2022-08-19T08:09:40;22.40;99.90
58469;DHT22;44257;44.804;10.220;2022-08-19T08:12:16;22.60;99.90
58469;DHT22;44257;44.804;10.220;2022-08-19T08:14:46;22.70;99.90
58469;DHT22;44257;44.804;10.220;2022-08-19T08:17:15;22.90;99.90
58469;DHT22;44257;44.804;10.220;2022-08-19T08:19:43;23.10;99.90
58469;DHT22;44257;44.804;10.220;2022-08-19T08:22:12;23.10;99.90
58469;DHT22;44257;44.804;10.220;2022-08-19T08:25:26;23.20;99.90
58469;DHT22;44257;44.804;10.220;2022-08-19T08:27:52;23.30;99.90
58469;DHT22;44257;44.804;10.220;2022-08-19T08:30:23;23.20;99.90
58469;DHT22;44257;44.804;10.220;2022-08-19T08:32:50;23.20;99.90
58469;DHT22;44257;44.804;10.220;2022-08-19T08:35:19;23.20;99.90
58469;DHT22;44257;44.804;10.220;2022-08-19T08:37:47;23.10;99.90
58469;DHT22;44257;44.804;10.220;2022-08-19T08:40:23;23.00;99.90
58469;DHT22;44257;44.804;10.220;2022-08-19T08:42:57;23.10;99.90
58469;DHT22;44257;44.804;10.220;2022-08-19T08:45:27;23.00;99.90
58469;DHT22;44257;44.804;10.220;2022-08-19T08:47:57;23.00;99.90
58469;DHT22;44257;44.804;10.220;2022-08-19T08:50:39;23.00;99.90
58469;DHT22;44257;44.804;10.220;2022-08-19T08:53:08;23.20;99.90
58469;DHT22;44257;44.804;10.220;2022-08-19T08:55:36;23.20;99.90
58469;DHT22;44257;44.804;10.220;2022-08-19T08:58:27;23.20;99.90
58469;DHT22;44257;44.804;10.220;2022-08-19T09:00:56;23.40;99.90
58469;DHT22;44257;44.804;10.220;2022-08-19T09:03:26;23.60;99.90
58469;DHT22;44257;44.804;10.220;2022-08-19T09:05:59;23.70;99.90
58469;DHT22;44257;44.804;10.220;2022-08-19T09:09:03;23.90;99.90
58469;DHT22;44257;44.804;10.220;2022-08-19T09:12:00;24.00;99.90
58469;DHT22;44257;44.804;10.220;2022-08-19T09:17:28;24.00;99.90
58469;DHT22;44257;44.804;10.220;2022-08-19T09:22:36;24.40;99.90
58469;DHT22;44257;44.804;10.220;2022-08-19T09:25:04;24.40;99.90
58469;DHT22;44257;44.804;10.220;2022-08-19T09:27:31;24.50;99.90
58469;DHT22;44257;44.804;10.220;2022-08-19T09:29:58;24.40;99.90
58469;DHT22;44257;44.804;10.220;2022-08-19T09:32:24;24.40;99.90
58469;DHT22;44257;44.804;10.220;2022-08-19T09:34:51;24.20;99.90
58469;DHT22;44257;44.804;10.220;2022-08-19T09:37:21;24.10;99.90
58469;DHT22;44257;44.804;10.220;2022-08-19T09:39:47;23.90;99.90
58469;DHT22;44257;44.804;10.220;2022-08-19T09:42:13;23.90;99.90
58469;DHT22;44257;44.804;10.220;2022-08-19T09:44:40;23.90;99.90
58469;DHT22;44257;44.804;10.220;2022-08-19T09:47:08;23.90;99.90
58469;DHT22;44257;44.804;10.220;2022-08-19T09:49:35;23.90;99.90
58469;DHT22;44257;44.804;10.220;2022-08-19T09:52:01;24.00;99.90
58469;DHT22;44257;44.804;10.220;2022-08-19T09:54:28;24.00;99.90
58469;DHT22;44257;44.804;10.220;2022-08-19T09:56:54;24.10;99.90
58469;DHT22;44257;44.804;10.220;2022-08-19T09:59:20;24.10;99.90
58469;DHT22;44257;44.804;10.220;2022-08-19T10:01:47;24.00;99.90
58469;DHT22;44257;44.804;10.220;2022-08-19T10:04:13;23.90;99.90
58469;DHT22;44257;44.804;10.220;2022-08-19T10:06:39;23.90;99.90
58469;DHT22;44257;44.804;10.220;2022-08-19T10:09:09;23.80;99.90
58469;DHT22;44257;44.804;10.220;2022-08-19T10:11:40;23.90;99.90
58469;DHT22;44257;44.804;10.220;2022-08-19T10:14:06;24.00;99.90
58469;DHT22;44257;44.804;10.220;2022-08-19T10:16:34;24.10;99.90
58469;DHT22;44257;44.804;10.220;2022-08-19T10:19:01;24.30;99.90
58469;DHT22;44257;44.804;10.220;2022-08-19T10:21:32;24.60;99.90
58469;DHT22;44257;44.804;10.220;2022-08-19T10:24:01;24.80;99.90
58469;DHT22;44257;44.804;10.220;2022-08-19T10:26:33;25.00;99.90
58469;DHT22;44257;44.804;10.220;2022-08-19T10:29:02;25.20;99.90
58469;DHT22;44257;44.804;10.220;2022-08-19T10:31:31;25.50;99.90
58469;DHT22;44257;44.804;10.220;2022-08-19T10:33:59;25.60;99.90
58469;DHT22;44257;44.804;10.220;2022-08-19T10:36:34;25.90;99.90
58469;DHT22;44257;44.804;10.220;2022-08-19T10:39:04;26.10;99.90
58469;DHT22;44257;44.804;10.220;2022-08-19T10:41:34;26.30;99.90
58469;DHT22;44257;44.804;10.220;2022-08-19T10:44:06;26.40;99.90
58469;DHT22;44257;44.804;10.220;2022-08-19T10:46:35;26.60;99.90
58469;DHT22;44257;44.804;10.220;2022-08-19T10:49:03;27.00;99.90
58469;DHT22;44257;44.804;10.220;2022-08-19T10:51:29;27.20;99.90
58469;DHT22;44257;44.804;10.220;2022-08-19T10:54:14;27.30;99.90
58469;DHT22;44257;44.804;10.220;2022-08-19T10:56:40;27.40;99.90
58469;DHT22;44257;44.804;10.220;2022-08-19T10:59:23;27.60;99.90
58469;DHT22;44257;44.804;10.220;2022-08-19T11:01:51;27.50;99.90
58469;DHT22;44257;44.804;10.220;2022-08-19T11:04:18;27.40;99.90
58469;DHT22;44257;44.804;10.220;2022-08-19T11:06:48;27.40;99.90
58469;DHT22;44257;44.804;10.220;2022-08-19T11:09:19;27.30;99.90
58469;DHT22;44257;44.804;10.220;2022-08-19T11:11:46;27.00;99.90
58469;DHT22;44257;44.804;10.220;2022-08-19T11:14:16;26.70;99.90
58469;DHT22;44257;44.804;10.220;2022-08-19T11:16:46;26.40;99.90
58469;DHT22;44257;44.804;10.220;2022-08-19T11:19:13;26.30;99.90
58469;DHT22;44257;44.804;10.220;2022-08-19T11:21:44;26.30;99.90
58469;DHT22;44257;44.804;10.220;2022-08-19T11:24:12;26.50;99.90
58469;DHT22;44257;44.804;10.220;2022-08-19T11:26:40;26.60;99.90
58469;DHT22;44257;44.804;10.220;2022-08-19T11:29:08;26.50;99.90
58469;DHT22;44257;44.804;10.220;2022-08-19T11:31:43;26.40;99.90
58469;DHT22;44257;44.804;10.220;2022-08-19T11:34:12;26.40;99.90
58469;DHT22;44257;44.804;10.220;2022-08-19T11:36:41;26.60;99.90
58469;DHT22;44257;44.804;10.220;2022-08-19T11:39:10;26.80;99.90
58469;DHT22;44257;44.804;10.220;2022-08-19T11:41:36;27.10;99.90
58469;DHT22;44257;44.804;10.220;2022-08-19T11:44:04;27.40;99.90
58469;DHT22;44257;44.804;10.220;2022-08-19T11:46:30;27.60;99.90
58469;DHT22;44257;44.804;10.220;2022-08-19T11:48:58;27.80;99.90
58469;DHT22;44257;44.804;10.220;2022-08-19T11:51:26;27.90;99.90
58469;DHT22;44257;44.804;10.220;2022-08-19T11:53:53;27.90;99.90
58469;DHT22;44257;44.804;10.220;2022-08-19T11:56:19;27.90;99.90
58469;DHT22;44257;44.804;10.220;2022-08-19T11:58:46;28.10;99.90
58469;DHT22;44257;44.804;10.220;2022-08-19T12:01:14;28.30;99.90
58469;DHT22;44257;44.804;10.220;2022-08-19T12:03:42;28.40;99.90
58469;DHT22;44257;44.804;10.220;2022-08-19T12:06:12;28.60;99.90
58469;DHT22;44257;44.804;10.220;2022-08-19T12:08:39;28.80;99.90
58469;DHT22;44257;44.804;10.220;2022-08-19T12:11:06;29.00;99.90
58469;DHT22;44257;44.804;10.220;2022-08-19T12:13:34;29.00;99.90
58469;DHT22;44257;44.804;10.220;2022-08-19T12:16:08;29.00;99.90
58469;DHT22;44257;44.804;10.220;2022-08-19T12:18:37;28.80;99.90
58469;DHT22;44257;44.804;10.220;2022-08-19T12:21:02;28.60;99.90
58469;DHT22;44257;44.804;10.220;2022-08-19T12:23:31;28.70;99.90
58469;DHT22;44257;44.804;10.220;2022-08-19T12:25:57;28.80;99.90
58469;DHT22;44257;44.804;10.220;2022-08-19T12:28:24;29.00;99.90
58469;DHT22;44257;44.804;10.220;2022-08-19T12:30:51;29.20;99.10
58469;DHT22;44257;44.804;10.220;2022-08-19T12:33:18;29.10;98.00
58469;DHT22;44257;44.804;10.220;2022-08-19T12:35:45;29.10;96.90
58469;DHT22;44257;44.804;10.220;2022-08-19T12:38:14;28.90;96.80
58469;DHT22;44257;44.804;10.220;2022-08-19T12:40:41;28.90;96.80
58469;DHT22;44257;44.804;10.220;2022-08-19T12:43:08;28.90;95.10
58469;DHT22;44257;44.804;10.220;2022-08-19T12:45:34;28.80;96.80
58469;DHT22;44257;44.804;10.220;2022-08-19T12:48:00;28.80;98.10
58469;DHT22;44257;44.804;10.220;2022-08-19T12:50:26;28.90;95.80
58469;DHT22;44257;44.804;10.220;2022-08-19T12:52:52;28.90;97.20
58469;DHT22;44257;44.804;10.220;2022-08-19T12:55:18;29.00;95.30
58469;DHT22;44257;44.804;10.220;2022-08-19T12:57:45;28.80;93.40
58469;DHT22;44257;44.804;10.220;2022-08-19T13:00:16;28.60;95.90
58469;DHT22;44257;44.804;10.220;2022-08-19T13:02:45;28.40;97.00
58469;DHT22;44257;44.804;10.220;2022-08-19T13:05:17;28.30;95.90
58469;DHT22;44257;44.804;10.220;2022-08-19T13:07:46;28.00;96.20
58469;DHT22;44257;44.804;10.220;2022-08-19T13:10:15;28.00;98.50
58469;DHT22;44257;44.804;10.220;2022-08-19T13:12:43;28.30;94.90
58469;DHT22;44257;44.804;10.220;2022-08-19T13:15:10;28.40;93.50
58469;DHT22;44257;44.804;10.220;2022-08-19T13:17:38;28.30;93.80
58469;DHT22;44257;44.804;10.220;2022-08-19T13:20:04;28.20;93.20
58469;DHT22;44257;44.804;10.220;2022-08-19T13:22:33;28.00;94.40
58469;DHT22;44257;44.804;10.220;2022-08-19T13:24:59;27.90;94.80
58469;DHT22;44257;44.804;10.220;2022-08-19T13:27:25;27.80;95.40
58469;DHT22;44257;44.804;10.220;2022-08-19T13:29:50;27.90;93.80
58469;DHT22;44257;44.804;10.220;2022-08-19T13:32:35;28.20;94.90
58469;DHT22;44257;44.804;10.220;2022-08-19T13:35:20;28.50;94.70
58469;DHT22;44257;44.804;10.220;2022-08-19T13:37:46;29.00;96.00
58469;DHT22;44257;44.804;10.220;2022-08-19T13:40:18;29.50;96.30
58469;DHT22;44257;44.804;10.220;2022-08-19T13:42:46;29.90;94.10
58469;DHT22;44257;44.804;10.220;2022-08-19T13:45:14;29.70;93.60
58469;DHT22;44257;44.804;10.220;2022-08-19T13:47:41;29.50;93.40
58469;DHT22;44257;44.804;10.220;2022-08-19T13:50:12;29.30;93.80
58469;DHT22;44257;44.804;10.220;2022-08-19T13:52:39;29.10;94.40
58469;DHT22;44257;44.804;10.220;2022-08-19T13:55:06;28.90;95.30
58469;DHT22;44257;44.804;10.220;2022-08-19T13:57:33;28.70;96.50
58469;DHT22;44257;44.804;10.220;2022-08-19T13:59:59;28.50;96.80
58469;DHT22;44257;44.804;10.220;2022-08-19T14:02:25;28.40;97.00
58469;DHT22;44257;44.804;10.220;2022-08-19T14:04:52;28.20;97.00
58469;DHT22;44257;44.804;10.220;2022-08-19T14:07:18;28.00;97.10
58469;DHT22;44257;44.804;10.220;2022-08-19T14:09:44;27.80;95.00
58469;DHT22;44257;44.804;10.220;2022-08-19T14:12:10;27.40;96.60
58469;DHT22;44257;44.804;10.220;2022-08-19T14:14:38;27.30;98.30
58469;DHT22;44257;44.804;10.220;2022-08-19T14:17:08;27.20;98.80
58469;DHT22;44257;44.804;10.220;2022-08-19T14:19:35;27.20;98.40
58469;DHT22;44257;44.804;10.220;2022-08-19T14:22:01;27.20;98.80
58469;DHT22;44257;44.804;10.220;2022-08-19T14:24:27;27.30;99.20
58469;DHT22;44257;44.804;10.220;2022-08-19T14:26:53;27.30;98.60
58469;DHT22;44257;44.804;10.220;2022-08-19T14:29:20;27.30;99.60
58469;DHT22;44257;44.804;10.220;2022-08-19T14:31:45;27.40;99.70
58469;DHT22;44257;44.804;10.220;2022-08-19T14:34:11;27.70;97.70
58469;DHT22;44257;44.804;10.220;2022-08-19T14:36:38;27.90;99.20
58469;DHT22;44257;44.804;10.220;2022-08-19T14:39:05;27.80;99.50
58469;DHT22;44257;44.804;10.220;2022-08-19T14:41:31;27.70;98.10
58469;DHT22;44257;44.804;10.220;2022-08-19T14:43:57;27.70;99.10
58469;DHT22;44257;44.804;10.220;2022-08-19T14:46:25;27.80;99.10
58469;DHT22;44257;44.804;10.220;2022-08-19T14:48:53;27.90;98.00
58469;DHT22;44257;44.804;10.220;2022-08-19T14:51:21;28.10;97.80
58469;DHT22;44257;44.804;10.220;2022-08-19T14:53:49;28.30;96.60
58469;DHT22;44257;44.804;10.220;2022-08-19T14:56:18;28.40;95.80
58469;DHT22;44257;44.804;10.220;2022-08-19T14:58:45;28.60;96.60
58469;DHT22;44257;44.804;10.220;2022-08-19T15:01:12;28.70;95.20
58469;DHT22;44257;44.804;10.220;2022-08-19T15:03:38;28.60;95.10
58469;DHT22;44257;44.804;10.220;2022-08-19T15:06:06;28.30;94.80
58469;DHT22;44257;44.804;10.220;2022-08-19T15:08:34;28.20;95.20
58469;DHT22;44257;44.804;10.220;2022-08-19T15:11:02;28.00;95.60
58469;DHT22;44257;44.804;10.220;2022-08-19T15:13:29;27.90;96.00
58469;DHT22;44257;44.804;10.220;2022-08-19T15:15:56;27.70;97.50
58469;DHT22;44257;44.804;10.220;2022-08-19T15:18:23;27.80;98.30
58469;DHT22;44257;44.804;10.220;2022-08-19T15:20:49;27.90;98.60
58469;DHT22;44257;44.804;10.220;2022-08-19T15:23:17;28.00;95.90
58469;DHT22;44257;44.804;10.220;2022-08-19T15:25:43;28.00;96.30
58469;DHT22;44257;44.804;10.220;2022-08-19T15:28:10;27.90;97.00
58469;DHT22;44257;44.804;10.220;2022-08-19T15:30:38;27.90;96.40
58469;DHT22;44257;44.804;10.220;2022-08-19T15:33:04;27.90;97.20
58469;DHT22;44257;44.804;10.220;2022-08-19T15:35:30;27.90;97.50
58469;DHT22;44257;44.804;10.220;2022-08-19T15:37:56;27.90;97.30
58469;DHT22;44257;44.804;10.220;2022-08-19T15:40:25;27.80;98.20
58469;DHT22;44257;44.804;10.220;2022-08-19T15:42:52;27.80;97.70
58469;DHT22;44257;44.804;10.220;2022-08-19T15:45:20;27.70;97.20
58469;DHT22;44257;44.804;10.220;2022-08-19T15:47:46;27.50;97.00
58469;DHT22;44257;44.804;10.220;2022-08-19T15:50:19;27.40;97.50
58469;DHT22;44257;44.804;10.220;2022-08-19T15:52:50;27.20;98.50
58469;DHT22;44257;44.804;10.220;2022-08-19T15:55:22;27.00;99.40
58469;DHT22;44257;44.804;10.220;2022-08-19T15:57:48;27.00;99.90
58469;DHT22;44257;44.804;10.220;2022-08-19T16:00:32;27.00;98.70
58469;DHT22;44257;44.804;10.220;2022-08-19T16:03:19;27.00;99.20
58469;DHT22;44257;44.804;10.220;2022-08-19T16:06:05;27.10;98.80
58469;DHT22;44257;44.804;10.220;2022-08-19T16:08:50;27.10;99.70
58469;DHT22;44257;44.804;10.220;2022-08-19T16:11:17;27.20;99.90
58469;DHT22;44257;44.804;10.220;2022-08-19T16:13:48;27.30;99.80
58469;DHT22;44257;44.804;10.220;2022-08-19T16:16:21;27.40;99.50
58469;DHT22;44257;44.804;10.220;2022-08-19T16:18:49;27.40;99.90
58469;DHT22;44257;44.804;10.220;2022-08-19T16:21:19;27.30;99.70
58469;DHT22;44257;44.804;10.220;2022-08-19T16:23:46;27.30;99.70
58469;DHT22;44257;44.804;10.220;2022-08-19T16:26:14;27.20;99.90
58469;DHT22;44257;44.804;10.220;2022-08-19T16:28:42;27.10;99.90
58469;DHT22;44257;44.804;10.220;2022-08-19T16:31:10;27.10;99.90
58469;DHT22;44257;44.804;10.220;2022-08-19T16:33:36;27.10;99.90
58469;DHT22;44257;44.804;10.220;2022-08-19T16:36:02;27.00;99.90
58469;DHT22;44257;44.804;10.220;2022-08-19T16:38:28;27.00;99.90
58469;DHT22;44257;44.804;10.220;2022-08-19T16:40:55;27.00;99.90
58469;DHT22;44257;44.804;10.220;2022-08-19T16:43:22;27.00;99.90
58469;DHT22;44257;44.804;10.220;2022-08-19T16:45:49;26.90;99.90
58469;DHT22;44257;44.804;10.220;2022-08-19T16:48:22;26.90;99.90
58469;DHT22;44257;44.804;10.220;2022-08-19T16:50:49;26.80;99.90
58469;DHT22;44257;44.804;10.220;2022-08-19T16:53:18;26.80;99.90
58469;DHT22;44257;44.804;10.220;2022-08-19T16:55:48;26.80;99.90
58469;DHT22;44257;44.804;10.220;2022-08-19T16:58:19;26.70;99.90
58469;DHT22;44257;44.804;10.220;2022-08-19T17:00:47;26.60;99.90
58469;DHT22;44257;44.804;10.220;2022-08-19T17:03:17;26.50;99.90
58469;DHT22;44257;44.804;10.220;2022-08-19T17:05:49;26.40;99.90
58469;DHT22;44257;44.804;10.220;2022-08-19T17:08:17;26.40;99.70
58469;DHT22;44257;44.804;10.220;2022-08-19T17:10:44;26.40;99.90
58469;DHT22;44257;44.804;10.220;2022-08-19T17:13:12;26.30;99.40
58469;DHT22;44257;44.804;10.220;2022-08-19T17:15:42;26.30;99.90
58469;DHT22;44257;44.804;10.220;2022-08-19T17:18:10;26.20;99.90
58469;DHT22;44257;44.804;10.220;2022-08-19T17:20:37;26.20;99.90
58469;DHT22;44257;44.804;10.220;2022-08-19T17:23:04;26.20;99.90
58469;DHT22;44257;44.804;10.220;2022-08-19T17:25:30;26.10;99.90
58469;DHT22;44257;44.804;10.220;2022-08-19T17:28:01;26.10;99.90
58469;DHT22;44257;44.804;10.220;2022-08-19T17:30:30;26.10;99.90
58469;DHT22;44257;44.804;10.220;2022-08-19T17:32:56;26.10;99.90
58469;DHT22;44257;44.804;10.220;2022-08-19T17:35:22;26.10;99.90
58469;DHT22;44257;44.804;10.220;2022-08-19T17:37:49;26.00;99.90
58469;DHT22;44257;44.804;10.220;2022-08-19T17:40:17;26.00;99.90
58469;DHT22;44257;44.804;10.220;2022-08-19T17:42:43;25.90;99.90
58469;DHT22;44257;44.804;10.220;2022-08-19T17:45:11;25.80;99.90
58469;DHT22;44257;44.804;10.220;2022-08-19T17:47:38;25.80;99.90
58469;DHT22;44257;44.804;10.220;2022-08-19T17:50:08;25.70;99.90
58469;DHT22;44257;44.804;10.220;2022-08-19T17:52:36;25.60;99.90
58469;DHT22;44257;44.804;10.220;2022-08-19T17:55:02;25.50;99.90
58469;DHT22;44257;44.804;10.220;2022-08-19T17:57:28;25.40;99.90
58469;DHT22;44257;44.804;10.220;2022-08-19T17:59:54;25.20;99.90
58469;DHT22;44257;44.804;10.220;2022-08-19T18:02:20;25.10;99.90
58469;DHT22;44257;44.804;10.220;2022-08-19T18:04:46;24.90;99.90
58469;DHT22;44257;44.804;10.220;2022-08-19T18:07:14;24.80;99.90
58469;DHT22;44257;44.804;10.220;2022-08-19T18:09:42;24.70;99.90
58469;DHT22;44257;44.804;10.220;2022-08-19T18:12:12;24.50;99.90
58469;DHT22;44257;44.804;10.220;2022-08-19T18:14:39;24.40;99.90
58469;DHT22;44257;44.804;10.220;2022-08-19T18:17:11;24.30;99.90
58469;DHT22;44257;44.804;10.220;2022-08-19T18:19:39;24.20;99.90
58469;DHT22;44257;44.804;10.220;2022-08-19T18:22:05;24.10;99.90
58469;DHT22;44257;44.804;10.220;2022-08-19T18:24:32;24.00;99.90
58469;DHT22;44257;44.804;10.220;2022-08-19T18:26:58;23.90;99.90
58469;DHT22;44257;44.804;10.220;2022-08-19T18:29:23;23.80;99.90
58469;DHT22;44257;44.804;10.220;2022-08-19T18:31:49;23.70;99.90
58469;DHT22;44257;44.804;10.220;2022-08-19T18:34:16;23.60;99.90
58469;DHT22;44257;44.804;10.220;2022-08-19T18:36:41;23.50;99.90
58469;DHT22;44257;44.804;10.220;2022-08-19T18:39:07;23.40;99.90
58469;DHT22;44257;44.804;10.220;2022-08-19T18:41:51;23.30;99.90
58469;DHT22;44257;44.804;10.220;2022-08-19T18:44:36;23.20;99.90
58469;DHT22;44257;44.804;10.220;2022-08-19T18:47:22;23.00;99.90
58469;DHT22;44257;44.804;10.220;2022-08-19T18:50:09;22.90;99.90
58469;DHT22;44257;44.804;10.220;2022-08-19T18:52:38;22.80;99.90
58469;DHT22;44257;44.804;10.220;2022-08-19T18:55:06;22.60;99.90
58469;DHT22;44257;44.804;10.220;2022-08-19T18:57:33;22.50;99.90
58469;DHT22;44257;44.804;10.220;2022-08-19T18:59:59;22.50;99.90